createdAt,value
2018-08-04T00:00:45.719Z,67.36
2018-08-04T00:01:45.725Z,68.39
2018-08-04T00:02:45.724Z,66.75
2018-08-04T00:03:45.728Z,68.19
2018-08-04T00:04:45.732Z,67.91
2018-08-04T00:05:45.735Z,68.49
2018-08-04T00:06:45.741Z,67.33
2018-08-04T00:07:45.743Z,68.01
2018-08-04T00:08:45.748Z,67.14
2018-08-04T00:09:45.750Z,67.71
2018-08-04T00:10:45.755Z,67.81
2018-08-04T00:11:45.761Z,67.52
2018-08-04T00:12:45.761Z,67.52
2018-08-04T00:13:45.762Z,68.39
2018-08-04T00:14:45.770Z,68.39
2018-08-04T00:15:45.773Z,67.04
2018-08-04T00:16:45.780Z,68.49
2018-08-04T00:17:45.780Z,68.29
2018-08-04T00:18:45.788Z,68.59
2018-08-04T00:19:45.788Z,68.97
2018-08-04T00:20:45.790Z,68.87
2018-08-04T00:21:45.793Z,69.07
2018-08-04T00:22:45.796Z,68.49
2018-08-04T00:23:45.801Z,67.71
2018-08-04T00:24:45.805Z,68.10
2018-08-04T00:25:45.807Z,68.39
2018-08-04T00:26:45.814Z,67.62
2018-08-04T00:27:45.814Z,67.43
2018-08-04T00:28:45.818Z,68.49
2018-08-04T00:29:45.825Z,68.39
2018-08-04T00:30:45.827Z,69.03
2018-08-04T00:31:45.829Z,69.45
2018-08-04T00:32:45.834Z,69.55
2018-08-04T00:33:45.837Z,69.74
2018-08-04T00:34:45.840Z,70.80
2018-08-04T00:35:45.847Z,70.61
2018-08-04T00:36:45.847Z,70.03
2018-08-04T00:37:45.850Z,70.28
2018-08-04T00:38:45.857Z,70.76
2018-08-04T00:39:45.860Z,70.67
2018-08-04T00:40:45.864Z,70.96
2018-08-04T00:41:45.866Z,70.96
2018-08-04T00:42:45.926Z,70.67
2018-08-04T00:43:45.869Z,70.09
2018-08-04T00:44:45.875Z,69.61
2018-08-04T00:45:45.881Z,69.51
2018-08-04T00:46:45.887Z,69.32
2018-08-04T00:47:45.885Z,69.42
2018-08-04T00:48:45.891Z,68.65
2018-08-04T00:49:45.895Z,68.55
2018-08-04T00:50:45.897Z,68.84
2018-08-04T00:51:45.898Z,69.61
2018-08-04T00:52:45.903Z,69.51
2018-08-04T00:53:45.908Z,69.51
2018-08-04T00:54:45.910Z,69.80
2018-08-04T00:55:45.912Z,70.09
2018-08-04T00:56:45.917Z,70.76
2018-08-04T00:57:45.921Z,70.57
2018-08-04T00:58:45.925Z,70.86
2018-08-04T00:59:45.929Z,71.41
2018-08-04T01:00:45.929Z,71.41
2018-08-04T01:01:45.935Z,70.54
2018-08-04T01:02:45.936Z,71.22
2018-08-04T01:03:45.942Z,71.50
2018-08-04T01:04:45.947Z,70.64
2018-08-04T01:05:45.948Z,69.80
2018-08-04T01:06:45.955Z,69.67
2018-08-04T01:07:45.955Z,70.09
2018-08-04T01:08:45.957Z,70.48
2018-08-04T01:09:45.959Z,70.09
2018-08-04T01:10:45.963Z,68.26
2018-08-04T01:11:45.968Z,68.45
2018-08-04T01:12:45.972Z,68.74
2018-08-04T01:13:45.983Z,67.68
2018-08-04T01:14:45.982Z,67.58
2018-08-04T01:15:45.981Z,68.65
2018-08-04T01:16:45.989Z,67.88
2018-08-04T01:17:45.990Z,68.35
2018-08-04T01:18:45.993Z,69.23
2018-08-04T01:19:45.996Z,68.65
2018-08-04T01:20:46.001Z,69.03
2018-08-04T01:21:46.007Z,68.55
2018-08-04T01:22:46.010Z,69.71
2018-08-04T01:23:46.010Z,69.90
2018-08-04T01:24:46.013Z,69.51
2018-08-04T01:25:46.017Z,69.32
2018-08-04T01:26:46.019Z,69.90
2018-08-04T01:27:46.022Z,70.19
2018-08-04T01:28:46.024Z,69.61
2018-08-04T01:29:46.031Z,69.51
2018-08-04T01:30:46.033Z,70.28
2018-08-04T01:31:46.040Z,70.19
2018-08-04T01:32:46.044Z,69.61
2018-08-04T01:33:46.045Z,70.00
2018-08-04T01:34:46.049Z,70.38
2018-08-04T01:35:46.050Z,70.09
2018-08-04T01:36:46.054Z,69.03
2018-08-04T01:37:46.058Z,69.80
2018-08-04T01:38:46.061Z,70.86
2018-08-04T01:39:46.068Z,70.57
2018-08-04T01:40:46.069Z,70.48
2018-08-04T01:41:46.076Z,69.71
2018-08-04T01:42:46.076Z,69.32
2018-08-04T01:43:46.078Z,70.38
2018-08-04T01:44:46.081Z,70.76
2018-08-04T01:45:46.087Z,70.44
2018-08-04T01:46:46.089Z,70.09
2018-08-04T01:47:46.093Z,69.87
2018-08-04T01:48:46.095Z,70.28
2018-08-04T01:49:46.101Z,69.71
2018-08-04T01:50:46.102Z,70.00
2018-08-04T01:51:46.105Z,69.96
2018-08-04T01:52:46.109Z,70.15
2018-08-04T01:53:46.156Z,70.67
2018-08-04T01:54:46.119Z,70.64
2018-08-04T01:55:46.118Z,70.44
2018-08-04T01:56:46.125Z,69.77
2018-08-04T01:57:46.125Z,71.31
2018-08-04T01:58:46.129Z,71.12
2018-08-04T01:59:46.131Z,71.41
2018-08-04T02:00:46.133Z,71.31
2018-08-04T02:01:46.138Z,71.60
2018-08-04T02:02:46.142Z,71.79
2018-08-04T02:03:46.148Z,71.31
2018-08-04T02:04:46.152Z,71.50
2018-08-04T02:05:46.157Z,72.27
2018-08-04T02:06:46.159Z,72.18
2018-08-04T02:07:46.161Z,72.47
2018-08-04T02:08:46.162Z,71.79
2018-08-04T02:09:46.164Z,71.89
2018-08-04T02:10:46.169Z,72.47
2018-08-04T02:11:46.170Z,73.33
2018-08-04T02:12:46.176Z,71.98
2018-08-04T02:13:46.178Z,72.47
2018-08-04T02:14:46.181Z,72.81
2018-08-04T02:15:46.184Z,73.49
2018-08-04T02:16:46.192Z,72.05
2018-08-04T02:17:46.190Z,72.24
2018-08-04T02:18:46.194Z,72.24
2018-08-04T02:19:46.198Z,72.33
2018-08-04T02:20:46.200Z,73.30
2018-08-04T02:21:46.202Z,72.91
2018-08-04T02:22:46.208Z,72.33
2018-08-04T02:23:46.208Z,72.91
2018-08-04T02:24:46.215Z,73.30
2018-08-04T02:25:46.215Z,73.01
2018-08-04T02:26:46.218Z,73.68
2018-08-04T02:27:46.222Z,73.68
2018-08-04T02:28:46.227Z,74.45
2018-08-04T02:29:46.226Z,74.55
2018-08-04T02:30:46.229Z,74.93
2018-08-04T02:31:46.231Z,74.84
2018-08-04T02:32:46.239Z,75.19
2018-08-04T02:33:46.244Z,74.90
2018-08-04T02:34:46.241Z,75.48
2018-08-04T02:35:46.246Z,76.53
2018-08-04T02:36:46.246Z,76.53
2018-08-04T02:37:46.248Z,76.53
2018-08-04T02:38:46.252Z,77.21
2018-08-04T02:39:46.255Z,77.11
2018-08-04T02:40:46.259Z,76.92
2018-08-04T02:41:46.263Z,77.50
2018-08-04T02:42:46.265Z,77.21
2018-08-04T02:43:46.266Z,77.50
2018-08-04T02:44:46.270Z,77.21
2018-08-04T02:45:46.275Z,76.44
2018-08-04T02:46:46.275Z,76.44
2018-08-04T02:47:46.279Z,76.82
2018-08-04T02:48:46.286Z,77.78
2018-08-04T02:49:46.285Z,77.69
2018-08-04T02:50:46.292Z,77.84
2018-08-04T02:51:46.297Z,77.84
2018-08-04T02:52:46.290Z,77.75
2018-08-04T02:53:46.295Z,77.08
2018-08-04T02:54:46.303Z,76.98
2018-08-04T02:55:46.302Z,77.01
2018-08-04T02:56:46.307Z,76.44
2018-08-04T02:57:46.307Z,77.40
2018-08-04T02:58:46.312Z,77.21
2018-08-04T02:59:46.315Z,77.98
2018-08-04T03:00:46.315Z,77.31
2018-08-04T03:01:46.317Z,77.69
2018-08-04T03:02:46.322Z,78.52
2018-08-04T03:03:46.322Z,78.27
2018-08-04T03:04:46.327Z,78.52
2018-08-04T03:05:46.327Z,78.71
2018-08-04T03:06:46.332Z,78.81
2018-08-04T03:07:46.332Z,78.61
2018-08-04T03:08:46.338Z,79.19
2018-08-04T03:09:46.340Z,79.48
2018-08-04T03:10:46.341Z,79.48
2018-08-04T03:11:46.344Z,78.90
2018-08-04T03:12:46.347Z,79.28
2018-08-04T03:13:46.350Z,79.38
2018-08-04T03:14:46.352Z,79.48
2018-08-04T03:15:46.364Z,79.19
2018-08-04T03:16:46.358Z,79.19
2018-08-04T03:17:46.364Z,80.06
2018-08-04T03:18:46.364Z,79.38
2018-08-04T03:19:46.365Z,79.86
2018-08-04T03:20:46.367Z,79.86
2018-08-04T03:21:46.368Z,80.15
2018-08-04T03:22:46.373Z,80.25
2018-08-04T03:23:46.375Z,80.83
2018-08-04T03:24:46.376Z,80.63
2018-08-04T03:25:46.381Z,80.54
2018-08-04T03:26:46.384Z,80.63
2018-08-04T03:27:46.384Z,81.21
2018-08-04T03:28:46.388Z,81.50
2018-08-04T03:29:46.391Z,81.02
2018-08-04T03:30:46.395Z,81.27
2018-08-04T03:31:46.396Z,81.27
2018-08-04T03:32:46.398Z,81.65
2018-08-04T03:33:46.400Z,81.37
2018-08-04T03:34:46.403Z,81.27
2018-08-04T03:35:46.403Z,81.84
2018-08-04T03:36:46.407Z,81.75
2018-08-04T03:37:46.412Z,81.84
2018-08-04T03:38:46.414Z,82.32
2018-08-04T03:39:46.417Z,81.56
2018-08-04T03:40:46.420Z,81.46
2018-08-04T03:41:46.421Z,82.04
2018-08-04T03:42:46.425Z,81.84
2018-08-04T03:43:46.425Z,82.32
2018-08-04T03:44:46.428Z,81.84
2018-08-04T03:45:46.430Z,82.04
2018-08-04T03:46:46.434Z,81.65
2018-08-04T03:47:46.436Z,81.94
2018-08-04T03:48:46.439Z,82.04
2018-08-04T03:49:46.441Z,81.60
2018-08-04T03:50:46.443Z,81.12
2018-08-04T03:51:46.449Z,81.40
2018-08-04T03:52:46.448Z,81.40
2018-08-04T03:53:46.451Z,81.21
2018-08-04T03:54:46.457Z,81.40
2018-08-04T03:55:46.456Z,81.40
2018-08-04T03:56:46.459Z,81.50
2018-08-04T03:57:46.461Z,81.21
2018-08-04T03:58:46.464Z,81.02
2018-08-04T03:59:46.479Z,81.60
2018-08-04T04:00:46.470Z,81.30
2018-08-04T04:01:46.472Z,81.60
2018-08-04T04:02:46.479Z,81.98
2018-08-04T04:03:46.480Z,81.40
2018-08-04T04:04:46.478Z,81.30
2018-08-04T04:05:46.483Z,81.60
2018-08-04T04:06:46.485Z,80.83
2018-08-04T04:07:46.486Z,80.54
2018-08-04T04:08:46.491Z,80.44
2018-08-04T04:09:46.494Z,80.92
2018-08-04T04:10:46.498Z,80.73
2018-08-04T04:11:46.496Z,80.38
2018-08-04T04:12:46.503Z,81.45
2018-08-04T04:13:46.506Z,81.45
2018-08-04T04:14:46.507Z,81.35
2018-08-04T04:15:46.514Z,81.73
2018-08-04T04:16:46.512Z,81.93
2018-08-04T04:17:46.514Z,81.25
2018-08-04T04:18:46.516Z,81.25
2018-08-04T04:19:46.525Z,81.35
2018-08-04T04:20:46.522Z,82.12
2018-08-04T04:21:46.524Z,82.12
2018-08-04T04:22:46.527Z,81.63
2018-08-04T04:23:46.530Z,81.16
2018-08-04T04:24:46.533Z,80.68
2018-08-04T04:25:46.537Z,80.52
2018-08-04T04:26:46.539Z,80.33
2018-08-04T04:27:46.542Z,80.62
2018-08-04T04:28:46.549Z,80.91
2018-08-04T04:29:46.551Z,80.91
2018-08-04T04:30:46.550Z,80.62
2018-08-04T04:31:46.554Z,80.43
2018-08-04T04:32:46.557Z,81.01
2018-08-04T04:33:46.562Z,80.33
2018-08-04T04:34:46.563Z,80.52
2018-08-04T04:35:46.565Z,80.62
2018-08-04T04:36:46.592Z,80.37
2018-08-04T04:37:46.571Z,80.66
2018-08-04T04:38:46.574Z,80.18
2018-08-04T04:39:46.577Z,80.02
2018-08-04T04:40:46.581Z,79.74
2018-08-04T04:41:46.583Z,78.58
2018-08-04T04:42:46.585Z,76.63
2018-08-04T04:43:46.592Z,75.31
2018-08-04T04:44:46.594Z,73.36
2018-08-04T04:45:46.597Z,70.82
2018-08-04T04:46:46.602Z,69.69
2018-08-04T04:47:46.600Z,67.69
2018-08-04T04:48:46.609Z,65.89
2018-08-04T04:49:46.615Z,64.37
2018-08-04T04:50:46.616Z,62.95
2018-08-04T04:51:46.616Z,62.19
2018-08-04T04:52:46.623Z,61.13
2018-08-04T04:53:46.625Z,60.28
2018-08-04T04:54:46.626Z,59.25
2018-08-04T04:55:46.631Z,58.57
2018-08-04T04:56:46.634Z,57.23
2018-08-04T04:57:46.638Z,56.87
2018-08-04T04:58:46.649Z,57.75
2018-08-04T04:59:46.647Z,57.00
2018-08-04T05:00:46.651Z,56.93
2018-08-04T05:01:46.655Z,56.93
2018-08-04T05:02:46.659Z,56.84
2018-08-04T05:03:46.665Z,56.05
2018-08-04T05:04:46.673Z,54.30
2018-08-04T05:05:46.677Z,54.82
2018-08-04T05:06:46.676Z,55.11
2018-08-04T05:07:46.681Z,55.21
2018-08-04T05:08:46.759Z,53.38
2018-08-04T05:09:46.690Z,54.06
2018-08-04T05:10:46.695Z,52.24
2018-08-04T05:11:46.700Z,54.28
2018-08-04T05:12:46.708Z,49.41
2018-08-04T05:13:46.709Z,51.34
2018-08-04T05:14:46.713Z,53.02
2018-08-04T05:15:46.720Z,53.14
2018-08-04T05:16:46.722Z,50.31
2018-08-04T05:17:46.728Z,49.44
2018-08-04T05:18:46.735Z,51.78
2018-08-04T05:19:46.739Z,51.70
2018-08-04T05:20:46.745Z,50.14
2018-08-04T05:21:46.752Z,48.78
2018-08-04T05:22:46.758Z,47.31
2018-08-04T05:23:46.763Z,50.85
2018-08-04T05:24:46.770Z,48.80
2018-08-04T05:25:46.775Z,47.46
2018-08-04T05:26:46.781Z,46.68
2018-08-04T05:27:46.784Z,48.97
2018-08-04T05:28:46.790Z,47.92
2018-08-04T05:29:46.796Z,46.65
2018-08-04T05:30:46.804Z,47.55
2018-08-04T05:31:46.810Z,44.13
2018-08-04T05:32:46.815Z,44.13
2018-08-04T05:33:46.822Z,46.47
2018-08-04T05:34:46.829Z,46.06
2018-08-04T05:35:46.833Z,44.10
2018-08-04T05:36:46.841Z,45.08
2018-08-04T05:37:46.850Z,45.59
2018-08-04T05:38:46.856Z,44.24
2018-08-04T05:39:46.862Z,43.73
2018-08-04T05:40:46.869Z,43.07
2018-08-04T05:41:46.877Z,42.58
2018-08-04T05:42:46.883Z,42.70
2018-08-04T05:43:46.886Z,42.43
2018-08-04T05:44:46.893Z,41.27
2018-08-04T05:45:46.904Z,40.70
2018-08-04T05:46:46.908Z,39.82
2018-08-04T05:47:46.915Z,40.63
2018-08-04T05:48:46.921Z,39.76
2018-08-04T05:49:46.928Z,38.78
2018-08-04T05:50:46.936Z,38.90
2018-08-04T05:51:46.941Z,38.09
2018-08-04T05:52:46.951Z,37.30
2018-08-04T05:53:46.960Z,38.01
2018-08-04T05:54:46.968Z,36.34
2018-08-04T05:55:46.974Z,36.93
2018-08-04T05:56:46.983Z,37.13
2018-08-04T05:57:46.995Z,37.05
2018-08-04T05:58:46.999Z,36.30
2018-08-04T05:59:47.007Z,34.92
2018-08-04T06:00:47.013Z,34.54
2018-08-04T06:01:47.037Z,33.56
2018-08-04T06:02:47.031Z,33.46
2018-08-04T06:03:47.037Z,33.56
2018-08-04T06:04:47.046Z,33.17
2018-08-04T06:05:47.052Z,32.77
2018-08-04T06:06:47.064Z,32.77
2018-08-04T06:07:47.070Z,32.69
2018-08-04T06:08:47.079Z,32.67
2018-08-04T06:09:47.089Z,32.67
2018-08-04T06:10:47.096Z,32.56
2018-08-04T06:11:47.105Z,33.07
2018-08-04T06:12:47.115Z,32.59
2018-08-04T06:13:47.128Z,31.69
2018-08-04T06:14:47.131Z,31.10
2018-08-04T06:15:47.139Z,31.01
2018-08-04T06:16:47.148Z,31.03
2018-08-04T06:17:47.158Z,30.03
2018-08-04T06:18:47.168Z,30.83
2018-08-04T06:19:47.175Z,31.14
2018-08-04T06:20:47.184Z,28.85
2018-08-04T06:21:47.196Z,31.62
2018-08-04T06:22:47.206Z,30.94
2018-08-04T06:23:47.216Z,29.46
2018-08-04T06:24:47.222Z,30.32
2018-08-04T06:25:47.232Z,30.32
2018-08-04T06:26:47.240Z,30.02
2018-08-04T06:27:47.253Z,29.92
2018-08-04T06:28:47.258Z,30.44
2018-08-04T06:29:47.268Z,29.96
2018-08-04T06:30:47.277Z,29.57
2018-08-04T06:31:47.335Z,28.96
2018-08-04T06:32:47.295Z,29.55
2018-08-04T06:33:47.307Z,30.06
2018-08-04T06:34:47.330Z,30.03
2018-08-04T06:35:47.324Z,29.85
2018-08-04T06:36:47.333Z,29.76
2018-08-04T06:37:47.349Z,29.78
2018-08-04T06:38:47.355Z,29.60
2018-08-04T06:39:47.364Z,29.11
2018-08-04T06:40:47.376Z,29.02
2018-08-04T06:41:47.424Z,28.13
2018-08-04T06:42:47.395Z,27.72
2018-08-04T06:43:47.402Z,27.69
2018-08-04T06:44:47.414Z,28.69
2018-08-04T06:45:47.430Z,28.61
2018-08-04T06:46:47.434Z,28.74
2018-08-04T06:47:47.444Z,27.96
2018-08-04T06:48:47.456Z,27.86
2018-08-04T06:49:47.465Z,26.56
2018-08-04T06:50:47.475Z,26.96
2018-08-04T06:51:47.485Z,27.47
2018-08-04T06:52:47.538Z,27.76
2018-08-04T06:53:47.506Z,27.44
2018-08-04T06:54:47.522Z,28.14
2018-08-04T06:55:47.526Z,27.26
2018-08-04T06:56:47.537Z,27.87
2018-08-04T06:57:47.555Z,28.59
2018-08-04T06:58:47.560Z,26.62
2018-08-04T06:59:47.569Z,25.84
2018-08-04T07:00:47.576Z,25.85
2018-08-04T07:01:47.592Z,25.44
2018-08-04T07:02:47.603Z,25.93
2018-08-04T07:03:47.613Z,26.44
2018-08-04T07:04:47.632Z,25.95
2018-08-04T07:05:47.636Z,25.85
2018-08-04T07:06:47.649Z,25.24
2018-08-04T07:07:47.657Z,25.97
2018-08-04T07:08:47.670Z,27.96
2018-08-04T07:09:47.681Z,28.27
2018-08-04T07:10:48.027Z,26.68
2018-08-04T07:11:47.706Z,27.39
2018-08-04T07:12:47.713Z,25.82
2018-08-04T07:13:47.788Z,26.82
2018-08-04T07:14:47.738Z,26.04
2018-08-04T07:15:47.749Z,25.56
2018-08-04T07:16:47.760Z,25.97
2018-08-04T07:17:47.771Z,24.67
2018-08-04T07:18:47.783Z,25.46
2018-08-04T07:19:47.795Z,24.63
2018-08-04T07:20:47.804Z,25.63
2018-08-04T07:21:47.817Z,26.13
2018-08-04T07:22:47.855Z,25.65
2018-08-04T07:23:47.841Z,25.46
2018-08-04T07:24:47.853Z,25.67
2018-08-04T07:25:47.865Z,24.89
2018-08-04T07:26:47.877Z,25.20
2018-08-04T07:27:47.888Z,24.32
2018-08-04T07:28:47.924Z,23.93
2018-08-04T07:29:47.914Z,24.23
2018-08-04T07:30:47.925Z,23.79
2018-08-04T07:31:47.938Z,24.98
2018-08-04T07:32:47.949Z,25.10
2018-08-04T07:33:47.959Z,24.90
2018-08-04T07:34:47.972Z,23.44
2018-08-04T07:35:47.984Z,22.55
2018-08-04T07:36:47.996Z,23.35
2018-08-04T07:37:48.009Z,22.37
2018-08-04T07:38:48.022Z,21.68
2018-08-04T07:39:48.036Z,22.29
2018-08-04T07:40:48.049Z,21.30
2018-08-04T07:41:48.062Z,21.88
2018-08-04T07:42:48.071Z,21.58
2018-08-04T07:43:48.082Z,21.79
2018-08-04T07:44:48.099Z,21.28
2018-08-04T07:45:48.107Z,21.89
2018-08-04T07:46:48.122Z,22.10
2018-08-04T07:47:48.132Z,22.30
2018-08-04T07:48:48.149Z,21.80
2018-08-04T07:49:48.159Z,21.60
2018-08-04T07:50:48.172Z,21.90
2018-08-04T07:51:48.185Z,21.71
2018-08-04T07:52:48.198Z,21.51
2018-08-04T07:53:48.211Z,21.41
2018-08-04T07:54:48.224Z,21.51
2018-08-04T07:55:48.241Z,22.48
2018-08-04T07:56:48.253Z,22.37
2018-08-04T07:57:48.263Z,22.37
2018-08-04T07:58:48.278Z,22.08
2018-08-04T07:59:48.287Z,22.39
2018-08-04T08:00:48.301Z,21.60
2018-08-04T08:01:48.316Z,22.80
2018-08-04T08:02:48.328Z,21.71
2018-08-04T08:03:48.348Z,21.31
2018-08-04T08:04:48.354Z,21.70
2018-08-04T08:05:48.369Z,21.01
2018-08-04T08:06:48.381Z,21.11
2018-08-04T08:07:48.394Z,20.81
2018-08-04T08:08:48.414Z,20.79
2018-08-04T08:09:48.423Z,21.26
2018-08-04T08:10:48.517Z,22.14
2018-08-04T08:11:48.448Z,22.62
2018-08-04T08:12:48.458Z,23.22
2018-08-04T08:13:48.477Z,22.34
2018-08-04T08:14:48.489Z,22.37
2018-08-04T08:15:48.503Z,22.38
2018-08-04T08:16:48.517Z,21.67
2018-08-04T08:17:48.530Z,22.30
2018-08-04T08:18:48.542Z,24.63
2018-08-04T08:19:48.558Z,25.12
2018-08-04T08:20:48.571Z,25.79
2018-08-04T08:21:48.582Z,25.60
2018-08-04T08:22:48.598Z,26.10
2018-08-04T08:23:48.609Z,25.24
2018-08-04T08:24:48.650Z,24.46
2018-08-04T08:25:48.634Z,23.41
2018-08-04T08:26:48.651Z,23.23
2018-08-04T08:27:48.665Z,23.35
2018-08-04T08:28:48.679Z,22.77
2018-08-04T08:29:48.692Z,21.47
2018-08-04T08:30:48.708Z,22.18
2018-08-04T08:31:48.721Z,21.68
2018-08-04T08:32:48.736Z,21.11
2018-08-04T08:33:48.748Z,20.81
2018-08-04T08:34:48.767Z,20.92
2018-08-04T08:35:48.775Z,20.94
2018-08-04T08:36:48.791Z,21.04
2018-08-04T08:37:48.805Z,20.75
2018-08-04T08:38:48.821Z,20.25
2018-08-04T08:39:48.836Z,20.25
2018-08-04T08:40:48.848Z,20.30
2018-08-04T08:41:48.861Z,20.89
2018-08-04T08:42:48.877Z,19.99
2018-08-04T08:43:48.891Z,20.19
2018-08-04T08:44:48.907Z,21.68
2018-08-04T08:45:48.921Z,21.39
2018-08-04T08:46:48.937Z,21.19
2018-08-04T08:47:48.949Z,21.50
2018-08-04T08:48:48.963Z,20.97
2018-08-04T08:49:48.977Z,21.67
2018-08-04T08:50:48.996Z,21.68
2018-08-04T08:51:49.005Z,21.69
2018-08-04T08:52:49.021Z,21.00
2018-08-04T08:53:49.084Z,21.01
2018-08-04T08:54:49.052Z,20.53
2018-08-04T08:55:49.062Z,20.13
2018-08-04T08:56:49.081Z,20.24
2018-08-04T08:57:49.095Z,21.00
2018-08-04T08:58:49.107Z,20.98
2018-08-04T08:59:49.120Z,21.88
2018-08-04T09:00:49.138Z,20.90
2018-08-04T09:01:49.151Z,20.72
2018-08-04T09:02:49.170Z,20.24
2018-08-04T09:03:49.177Z,19.93
2018-08-04T09:04:49.194Z,19.02
2018-08-04T09:05:49.209Z,19.23
2018-08-04T09:06:49.220Z,19.72
2018-08-04T09:07:49.236Z,20.11
2018-08-04T09:08:49.250Z,20.49
2018-08-04T09:09:49.263Z,20.89
2018-08-04T09:10:49.277Z,20.67
2018-08-04T09:11:49.289Z,22.40
2018-08-04T09:12:49.304Z,24.14
2018-08-04T09:13:49.316Z,25.19
2018-08-04T09:14:49.328Z,26.34
2018-08-04T09:15:49.341Z,27.50
2018-08-04T09:16:49.353Z,28.77
2018-08-04T09:17:49.367Z,30.31
2018-08-04T09:18:49.380Z,31.48
2018-08-04T09:19:49.388Z,30.30
2018-08-04T09:20:49.399Z,31.36
2018-08-04T09:21:49.412Z,31.35
2018-08-04T09:22:49.423Z,30.84
2018-08-04T09:23:49.431Z,31.51
2018-08-04T09:24:49.540Z,32.48
2018-08-04T09:25:49.456Z,32.68
2018-08-04T09:26:49.475Z,32.38
2018-08-04T09:27:49.476Z,32.97
2018-08-04T09:28:49.497Z,33.07
2018-08-04T09:29:49.496Z,33.05
2018-08-04T09:30:49.569Z,33.23
2018-08-04T09:31:49.519Z,33.72
2018-08-04T09:32:49.524Z,34.51
2018-08-04T09:33:49.539Z,34.21
2018-08-04T09:34:49.547Z,34.42
2018-08-04T09:35:49.558Z,34.11
2018-08-04T09:36:49.569Z,33.54
2018-08-04T09:37:49.586Z,34.11
2018-08-04T09:38:49.591Z,34.11
2018-08-04T09:39:49.605Z,34.51
2018-08-04T09:40:49.612Z,35.68
2018-08-04T09:41:49.618Z,35.19
2018-08-04T09:42:49.623Z,35.35
2018-08-04T09:43:49.637Z,35.63
2018-08-04T09:44:49.647Z,36.63
2018-08-04T09:45:49.655Z,36.92
2018-08-04T09:46:49.665Z,36.82
2018-08-04T09:47:49.678Z,36.35
2018-08-04T09:48:49.687Z,36.94
2018-08-04T09:49:49.693Z,36.06
2018-08-04T09:50:49.700Z,36.35
2018-08-04T09:51:49.708Z,35.86
2018-08-04T09:52:49.723Z,36.55
2018-08-04T09:53:49.733Z,36.84
2018-08-04T09:54:49.740Z,37.04
2018-08-04T09:55:49.749Z,38.04
2018-08-04T09:56:49.758Z,37.35
2018-08-04T09:57:49.766Z,35.00
2018-08-04T09:58:49.777Z,35.25
2018-08-04T09:59:49.794Z,36.63
2018-08-04T10:00:49.795Z,36.63
2018-08-04T10:01:49.805Z,36.04
2018-08-04T10:02:49.813Z,36.35
2018-08-04T10:03:49.823Z,36.06
2018-08-04T10:04:49.834Z,34.98
2018-08-04T10:05:49.842Z,35.37
2018-08-04T10:06:49.852Z,35.58
2018-08-04T10:07:49.856Z,35.58
2018-08-04T10:08:49.875Z,35.47
2018-08-04T10:09:49.872Z,35.35
2018-08-04T10:10:49.887Z,36.55
2018-08-04T10:11:49.895Z,35.55
2018-08-04T10:12:49.907Z,36.35
2018-08-04T10:13:49.915Z,35.37
2018-08-04T10:14:49.925Z,34.59
2018-08-04T10:15:49.932Z,34.59
2018-08-04T10:16:49.940Z,36.08
2018-08-04T10:17:49.950Z,35.68
2018-08-04T10:18:49.959Z,34.01
2018-08-04T10:19:49.968Z,33.82
2018-08-04T10:20:49.978Z,34.90
2018-08-04T10:21:49.986Z,35.29
2018-08-04T10:22:49.994Z,35.50
2018-08-04T10:23:50.004Z,35.50
2018-08-04T10:24:50.013Z,33.54
2018-08-04T10:25:50.023Z,33.74
2018-08-04T10:26:50.036Z,33.74
2018-08-04T10:27:50.040Z,34.90
2018-08-04T10:28:50.050Z,34.70
2018-08-04T10:29:50.058Z,36.06
2018-08-04T10:30:50.071Z,34.78
2018-08-04T10:31:50.079Z,36.16
2018-08-04T10:32:50.124Z,36.08
2018-08-04T10:33:50.093Z,35.10
2018-08-04T10:34:50.103Z,35.10
2018-08-04T10:35:50.207Z,35.10
2018-08-04T10:36:50.121Z,36.58
2018-08-04T10:37:50.130Z,34.92
2018-08-04T10:38:50.143Z,35.41
2018-08-04T10:39:50.148Z,35.31
2018-08-04T10:40:50.160Z,34.42
2018-08-04T10:41:50.167Z,35.02
2018-08-04T10:42:50.173Z,34.81
2018-08-04T10:43:50.201Z,34.62
2018-08-04T10:44:50.193Z,34.03
2018-08-04T10:45:50.203Z,34.11
2018-08-04T10:46:50.210Z,33.74
2018-08-04T10:47:50.221Z,33.74
2018-08-04T10:48:50.231Z,34.13
2018-08-04T10:49:50.235Z,33.64
2018-08-04T10:50:50.246Z,33.74
2018-08-04T10:51:50.252Z,34.92
2018-08-04T10:52:50.263Z,34.13
2018-08-04T10:53:50.276Z,34.25
2018-08-04T10:54:50.282Z,35.31
2018-08-04T10:55:50.289Z,35.62
2018-08-04T10:56:50.302Z,34.54
2018-08-04T10:57:50.309Z,33.95
2018-08-04T10:58:50.320Z,33.85
2018-08-04T10:59:50.327Z,33.07
2018-08-04T11:00:50.522Z,34.64
2018-08-04T11:01:50.344Z,32.57
2018-08-04T11:02:50.351Z,32.68
2018-08-04T11:03:50.371Z,32.68
2018-08-04T11:04:50.382Z,32.78
2018-08-04T11:05:50.381Z,32.87
2018-08-04T11:06:50.397Z,32.57
2018-08-04T11:07:50.401Z,32.57
2018-08-04T11:08:50.408Z,32.87
2018-08-04T11:09:50.420Z,33.36
2018-08-04T11:10:50.426Z,32.09
2018-08-04T11:11:50.439Z,33.07
2018-08-04T11:12:50.449Z,33.05
2018-08-04T11:13:50.454Z,32.86
2018-08-04T11:14:50.465Z,33.15
2018-08-04T11:15:50.471Z,32.87
2018-08-04T11:16:50.483Z,33.65
2018-08-04T11:17:50.489Z,33.08
2018-08-04T11:18:50.497Z,32.69
2018-08-04T11:19:50.526Z,32.68
2018-08-04T11:20:50.513Z,31.89
2018-08-04T11:21:50.526Z,32.48
2018-08-04T11:22:50.536Z,32.09
2018-08-04T11:23:50.545Z,31.50
2018-08-04T11:24:50.556Z,32.78
2018-08-04T11:25:50.567Z,32.97
2018-08-04T11:26:50.571Z,31.50
2018-08-04T11:27:50.579Z,31.51
2018-08-04T11:28:50.590Z,32.18
2018-08-04T11:29:50.601Z,32.57
2018-08-04T11:30:50.641Z,33.07
2018-08-04T11:31:50.614Z,32.57
2018-08-04T11:32:50.629Z,32.18
2018-08-04T11:33:50.639Z,31.30
2018-08-04T11:34:50.645Z,32.37
2018-08-04T11:35:50.653Z,32.37
2018-08-04T11:36:50.661Z,32.07
2018-08-04T11:37:50.698Z,32.57
2018-08-04T11:38:50.685Z,32.18
2018-08-04T11:39:50.690Z,32.68
2018-08-04T11:40:50.700Z,32.76
2018-08-04T11:41:50.709Z,32.68
2018-08-04T11:42:50.720Z,32.97
2018-08-04T11:43:50.726Z,32.76
2018-08-04T11:44:50.738Z,32.46
2018-08-04T11:45:50.746Z,32.97
2018-08-04T11:46:50.755Z,32.95
2018-08-04T11:47:50.765Z,33.95
2018-08-04T11:48:50.774Z,34.64
2018-08-04T11:49:50.781Z,33.74
2018-08-04T11:50:50.792Z,33.74
2018-08-04T11:51:50.798Z,34.23
2018-08-04T11:52:50.809Z,32.68
2018-08-04T11:53:50.815Z,32.18
2018-08-04T11:54:50.826Z,32.50
2018-08-04T11:55:50.834Z,32.69
2018-08-04T11:56:50.847Z,32.59
2018-08-04T11:57:50.861Z,33.67
2018-08-04T11:58:50.864Z,33.61
2018-08-04T11:59:50.877Z,32.82
2018-08-04T12:00:50.881Z,32.82
2018-08-04T12:01:50.905Z,33.12
2018-08-04T12:02:50.900Z,32.53
2018-08-04T12:03:50.912Z,32.14
2018-08-04T12:04:50.918Z,32.43
2018-08-04T12:05:50.929Z,32.64
2018-08-04T12:06:50.939Z,32.15
2018-08-04T12:07:50.946Z,32.05
2018-08-04T12:08:50.954Z,32.51
2018-08-04T12:09:50.966Z,32.61
2018-08-04T12:10:50.977Z,32.79
2018-08-04T12:11:50.985Z,32.89
2018-08-04T12:12:50.993Z,32.89
2018-08-04T12:13:51.003Z,32.97
2018-08-04T12:14:51.013Z,33.65
2018-08-04T12:15:51.026Z,32.48
2018-08-04T12:16:51.031Z,32.48
2018-08-04T12:17:51.041Z,33.07
2018-08-04T12:18:51.051Z,33.64
2018-08-04T12:19:51.059Z,33.07
2018-08-04T12:20:51.067Z,33.75
2018-08-04T12:21:51.078Z,33.08
2018-08-04T12:22:51.090Z,33.08
2018-08-04T12:23:51.097Z,32.81
2018-08-04T12:24:51.105Z,32.61
2018-08-04T12:25:51.118Z,31.04
2018-08-04T12:26:51.127Z,30.84
2018-08-04T12:27:51.138Z,31.45
2018-08-04T12:28:51.144Z,33.51
2018-08-04T12:29:51.152Z,34.69
2018-08-04T12:30:51.163Z,32.61
2018-08-04T12:31:51.172Z,32.51
2018-08-04T12:32:51.182Z,31.61
2018-08-04T12:33:51.189Z,33.08
2018-08-04T12:34:53.126Z,33.69
2018-08-04T12:35:51.209Z,32.98
2018-08-04T12:36:51.219Z,33.48
2018-08-04T12:37:51.228Z,32.59
2018-08-04T12:38:51.238Z,32.69
2018-08-04T12:39:51.246Z,33.36
2018-08-04T12:40:51.256Z,33.46
2018-08-04T12:41:51.264Z,33.48
2018-08-04T12:42:51.276Z,32.98
2018-08-04T12:43:51.284Z,32.81
2018-08-04T12:44:51.294Z,33.38
2018-08-04T12:45:51.307Z,33.48
2018-08-04T12:46:51.311Z,33.58
2018-08-04T12:47:51.331Z,33.10
2018-08-04T12:48:51.328Z,33.59
2018-08-04T12:49:51.340Z,33.28
2018-08-04T12:50:51.351Z,33.58
2018-08-04T12:51:51.357Z,32.69
2018-08-04T12:52:51.367Z,33.48